AVA9310 SKBO-SKRG
Flight info
| Callsign | AVA9310 |
|---|---|
| Flight time | 0h 25m |
| Altitude | 22000 |
| Route | ABL4K ABL DCT RENOS RENOS3B |
| Aircraft | A320/M-SDE3FGHIRWY/LB1 |
Departure
| Time | 2026-04-21 23:18 |
|---|---|
| Airport | El Dorado International Airport (SKBO) |
Arrival
| Time | 2026-04-21 23:43 |
|---|---|
| Airport | Jose Maria Córdova International Airport (SKRG) |
| Time | Latitude | Longitude | Altitude | Speed | Heading |
|---|---|---|---|---|---|
| 2026-04-21 22:41 | 4.69877 | -74.14629 | 8370 ft | 0 kts | 123° |
| 2026-04-21 23:04 | 4.69886 | -74.14642 | 8371 ft | 3 kts | 130° |
| 2026-04-21 23:04 | 4.69898 | -74.14657 | 8361 ft | 3 kts | 139° |
| 2026-04-21 23:05 | 4.69912 | -74.14668 | 8375 ft | 3 kts | 149° |
| 2026-04-21 23:05 | 4.69928 | -74.14674 | 8371 ft | 3 kts | 171° |
| 2026-04-21 23:05 | 4.69942 | -74.14673 | 8371 ft | 2 kts | 196° |
| 2026-04-21 23:05 | 4.69955 | -74.14667 | 8371 ft | 2 kts | 211° |
| 2026-04-21 23:06 | 4.69960 | -74.14663 | 8371 ft | 3 kts | 219° |
| 2026-04-21 23:06 | 4.69939 | -74.14679 | 8371 ft | 4 kts | 217° |
| 2026-04-21 23:06 | 4.69925 | -74.14689 | 8374 ft | 2 kts | 217° |
| 2026-04-21 23:06 | 4.69916 | -74.14696 | 8371 ft | 1 kts | 218° |
| 2026-04-21 23:11 | 4.69914 | -74.14698 | 8370 ft | 3 kts | 218° |
| 2026-04-21 23:11 | 4.69877 | -74.14727 | 8370 ft | 11 kts | 218° |
| 2026-04-21 23:11 | 4.69822 | -74.14768 | 8370 ft | 9 kts | 216° |
| 2026-04-21 23:12 | 4.69771 | -74.14802 | 8370 ft | 8 kts | 207° |
| 2026-04-21 23:12 | 4.69729 | -74.14800 | 8370 ft | 5 kts | 151° |
| 2026-04-21 23:12 | 4.69701 | -74.14771 | 8370 ft | 8 kts | 128° |
| 2026-04-21 23:12 | 4.69674 | -74.14735 | 8371 ft | 5 kts | 127° |
| 2026-04-21 23:13 | 4.69651 | -74.14706 | 8370 ft | 7 kts | 127° |
| 2026-04-21 23:13 | 4.69614 | -74.14656 | 8370 ft | 12 kts | 127° |
| 2026-04-21 23:13 | 4.69553 | -74.14574 | 8370 ft | 17 kts | 127° |
| 2026-04-21 23:13 | 4.69480 | -74.14477 | 8370 ft | 18 kts | 127° |
| 2026-04-21 23:14 | 4.69405 | -74.14380 | 8370 ft | 18 kts | 127° |
| 2026-04-21 23:14 | 4.69331 | -74.14282 | 8370 ft | 18 kts | 127° |
| 2026-04-21 23:14 | 4.69256 | -74.14185 | 8371 ft | 16 kts | 128° |
| 2026-04-21 23:14 | 4.69197 | -74.14106 | 8371 ft | 9 kts | 127° |
| 2026-04-21 23:15 | 4.69163 | -74.14083 | 8370 ft | 4 kts | 172° |
| 2026-04-21 23:15 | 4.69143 | -74.14088 | 8371 ft | 1 kts | 202° |
| 2026-04-21 23:15 | 4.69140 | -74.14090 | 8371 ft | 1 kts | 206° |
| 2026-04-21 23:15 | 4.69115 | -74.14106 | 8371 ft | 7 kts | 215° |
| 2026-04-21 23:16 | 4.69076 | -74.14136 | 8372 ft | 6 kts | 218° |
| 2026-04-21 23:16 | 4.69048 | -74.14161 | 8372 ft | 8 kts | 228° |
| 2026-04-21 23:16 | 4.69018 | -74.14212 | 8373 ft | 8 kts | 266° |
| 2026-04-21 23:16 | 4.69060 | -74.14280 | 8372 ft | 20 kts | 307° |
| 2026-04-21 23:17 | 4.69276 | -74.14564 | 8370 ft | 80 kts | 307° |
| 2026-04-21 23:17 | 4.69719 | -74.15148 | 8372 ft | 128 kts | 308° |
| 2026-04-21 23:17 | 4.70346 | -74.15963 | 8402 ft | 162 kts | 308° |
| 2026-04-21 23:17 | 4.71019 | -74.16846 | 8940 ft | 157 kts | 305° |
| 2026-04-21 23:18 | 4.71623 | -74.17764 | 9386 ft | 161 kts | 305° |
| 2026-04-21 23:18 | 4.72278 | -74.18702 | 9670 ft | 168 kts | 307° |
| 2026-04-21 23:18 | 4.72978 | -74.19663 | 9964 ft | 175 kts | 306° |
| 2026-04-21 23:18 | 4.73685 | -74.20677 | 10276 ft | 181 kts | 305° |
| 2026-04-21 23:19 | 4.74394 | -74.21743 | 10588 ft | 187 kts | 303° |
| 2026-04-21 23:19 | 4.75100 | -74.22856 | 10906 ft | 191 kts | 302° |
| 2026-04-21 23:19 | 4.75799 | -74.24011 | 11199 ft | 198 kts | 301° |
| 2026-04-21 23:19 | 4.76446 | -74.25294 | 11319 ft | 217 kts | 284° |
| 2026-04-21 23:20 | 4.76399 | -74.26838 | 11508 ft | 233 kts | 254° |
| 2026-04-21 23:20 | 4.75851 | -74.28435 | 11668 ft | 251 kts | 253° |
| 2026-04-21 23:20 | 4.75511 | -74.29587 | 11677 ft | 270 kts | 256° |
| 2026-04-21 23:20 | 4.74991 | -74.31558 | 11783 ft | 296 kts | 257° |
| 2026-04-21 23:21 | 4.74654 | -74.32908 | 11947 ft | 308 kts | 257° |
| 2026-04-21 23:21 | 4.74130 | -74.35052 | 12100 ft | 330 kts | 257° |
| 2026-04-21 23:21 | 4.73552 | -74.37353 | 11989 ft | 346 kts | 257° |
| 2026-04-21 23:21 | 4.72964 | -74.39686 | 11963 ft | 346 kts | 256° |
| 2026-04-21 23:22 | 4.72356 | -74.42020 | 12064 ft | 346 kts | 255° |
| 2026-04-21 23:22 | 4.71681 | -74.44351 | 12608 ft | 350 kts | 254° |
| 2026-04-21 23:22 | 4.70963 | -74.46692 | 13253 ft | 353 kts | 253° |
| 2026-04-21 23:22 | 4.70223 | -74.49053 | 13872 ft | 356 kts | 253° |
| 2026-04-21 23:23 | 4.69592 | -74.51458 | 14418 ft | 358 kts | 265° |
| 2026-04-21 23:23 | 4.69748 | -74.53942 | 14955 ft | 359 kts | 281° |
| 2026-04-21 23:23 | 4.70401 | -74.56369 | 15462 ft | 363 kts | 289° |
| 2026-04-21 23:23 | 4.71321 | -74.58739 | 15986 ft | 366 kts | 293° |
| 2026-04-21 23:24 | 4.72344 | -74.61084 | 16506 ft | 369 kts | 294° |
| 2026-04-21 23:24 | 4.73379 | -74.63452 | 17026 ft | 372 kts | 293° |
| 2026-04-21 23:24 | 4.74378 | -74.65856 | 17535 ft | 375 kts | 292° |
| 2026-04-21 23:24 | 4.75330 | -74.68294 | 18047 ft | 378 kts | 290° |
| 2026-04-21 23:25 | 4.76251 | -74.70772 | 18521 ft | 381 kts | 290° |
| 2026-04-21 23:25 | 4.77226 | -74.73254 | 18946 ft | 384 kts | 296° |
| 2026-04-21 23:25 | 4.78634 | -74.75539 | 19383 ft | 387 kts | 308° |
| 2026-04-21 23:25 | 4.80517 | -74.77474 | 19814 ft | 390 kts | 321° |
| 2026-04-21 23:26 | 4.82797 | -74.78966 | 20240 ft | 394 kts | 333° |
| 2026-04-21 23:26 | 4.85268 | -74.80176 | 20653 ft | 397 kts | 333° |
| 2026-04-21 23:26 | 4.87756 | -74.81405 | 21060 ft | 400 kts | 333° |
| 2026-04-21 23:26 | 4.90261 | -74.82653 | 21459 ft | 403 kts | 333° |
| 2026-04-21 23:27 | 4.92782 | -74.83913 | 21861 ft | 407 kts | 333° |
| 2026-04-21 23:27 | 4.95313 | -74.85178 | 21991 ft | 407 kts | 333° |
| 2026-04-21 23:27 | 4.97799 | -74.86417 | 22009 ft | 392 kts | 333° |
| 2026-04-21 23:27 | 5.00226 | -74.87623 | 21996 ft | 390 kts | 333° |
| 2026-04-21 23:28 | 5.02661 | -74.88837 | 21977 ft | 390 kts | 333° |
| 2026-04-21 23:28 | 5.05092 | -74.90050 | 21961 ft | 390 kts | 333° |
| 2026-04-21 23:28 | 5.07521 | -74.91263 | 21952 ft | 390 kts | 333° |
| 2026-04-21 23:28 | 5.09955 | -74.92478 | 21937 ft | 391 kts | 333° |
| 2026-04-21 23:29 | 5.12389 | -74.93690 | 21929 ft | 391 kts | 333° |
| 2026-04-21 23:29 | 5.14822 | -74.94901 | 21919 ft | 390 kts | 333° |
| 2026-04-21 23:29 | 5.17254 | -74.96112 | 21920 ft | 391 kts | 333° |
| 2026-04-21 23:29 | 5.19688 | -74.97328 | 21920 ft | 391 kts | 333° |
| 2026-04-21 23:30 | 5.22121 | -74.98546 | 21931 ft | 391 kts | 333° |
| 2026-04-21 23:30 | 5.24553 | -74.99761 | 21943 ft | 390 kts | 333° |
| 2026-04-21 23:30 | 5.26985 | -75.00972 | 21950 ft | 390 kts | 333° |
| 2026-04-21 23:30 | 5.29418 | -75.02180 | 21970 ft | 390 kts | 333° |
| 2026-04-21 23:31 | 5.31849 | -75.03389 | 21984 ft | 391 kts | 333° |
| 2026-04-21 23:31 | 5.34279 | -75.04600 | 22006 ft | 390 kts | 333° |
| 2026-04-21 23:31 | 5.36705 | -75.05811 | 21976 ft | 388 kts | 333° |
| 2026-04-21 23:31 | 5.39099 | -75.07005 | 21754 ft | 379 kts | 333° |
| 2026-04-21 23:32 | 5.41432 | -75.08169 | 21535 ft | 370 kts | 333° |
| 2026-04-21 23:32 | 5.43706 | -75.09302 | 21310 ft | 365 kts | 333° |
| 2026-04-21 23:32 | 5.45976 | -75.10434 | 21089 ft | 363 kts | 333° |
| 2026-04-21 23:32 | 5.48232 | -75.11561 | 20867 ft | 362 kts | 333° |
| 2026-04-21 23:33 | 5.50480 | -75.12683 | 20641 ft | 360 kts | 333° |
| 2026-04-21 23:33 | 5.52722 | -75.13802 | 20410 ft | 359 kts | 333° |
| 2026-04-21 23:33 | 5.54949 | -75.14915 | 20176 ft | 357 kts | 333° |
| 2026-04-21 23:33 | 5.57166 | -75.16025 | 19949 ft | 356 kts | 333° |
| 2026-04-21 23:34 | 5.59371 | -75.17135 | 19724 ft | 355 kts | 331° |
| 2026-04-21 23:34 | 5.61466 | -75.18435 | 19496 ft | 353 kts | 327° |
| 2026-04-21 23:34 | 5.63508 | -75.19752 | 19177 ft | 348 kts | 327° |
| 2026-04-21 23:34 | 5.65545 | -75.21064 | 18766 ft | 348 kts | 327° |
| 2026-04-21 23:35 | 5.67579 | -75.22372 | 18327 ft | 347 kts | 327° |
| 2026-04-21 23:35 | 5.69607 | -75.23691 | 17861 ft | 346 kts | 324° |
| 2026-04-21 23:35 | 5.71390 | -75.25302 | 17342 ft | 347 kts | 309° |
| 2026-04-21 23:35 | 5.72723 | -75.27305 | 16877 ft | 345 kts | 295° |
| 2026-04-21 23:36 | 5.73563 | -75.29552 | 16449 ft | 343 kts | 287° |
| 2026-04-21 23:36 | 5.74271 | -75.31834 | 16019 ft | 342 kts | 287° |
| 2026-04-21 23:36 | 5.74988 | -75.34107 | 15596 ft | 341 kts | 287° |
| 2026-04-21 23:36 | 5.75698 | -75.36346 | 15169 ft | 340 kts | 287° |
| 2026-04-21 23:37 | 5.76485 | -75.38574 | 14747 ft | 340 kts | 296° |
| 2026-04-21 23:37 | 5.77876 | -75.40476 | 14321 ft | 340 kts | 317° |
| 2026-04-21 23:37 | 5.79853 | -75.41748 | 13893 ft | 340 kts | 338° |
| 2026-04-21 23:37 | 5.82158 | -75.42225 | 13444 ft | 340 kts | 358° |
| 2026-04-21 23:38 | 5.84510 | -75.42229 | 13048 ft | 337 kts | 359° |
| 2026-04-21 23:38 | 5.86848 | -75.42228 | 12634 ft | 335 kts | 359° |
| 2026-04-21 23:38 | 5.89170 | -75.42228 | 12222 ft | 332 kts | 359° |
| 2026-04-21 23:38 | 5.89989 | -75.42228 | 12065 ft | 328 kts | 359° |
| 2026-04-21 23:39 | 5.92087 | -75.42212 | 11422 ft | 323 kts | 359° |
| 2026-04-21 23:39 | 5.94255 | -75.42209 | 11254 ft | 301 kts | 359° |
| 2026-04-21 23:39 | 5.96305 | -75.42215 | 10934 ft | 288 kts | 359° |
| 2026-04-21 23:39 | 5.98260 | -75.42223 | 10618 ft | 275 kts | 359° |
| 2026-04-21 23:40 | 6.00145 | -75.42230 | 10221 ft | 267 kts | 359° |
| 2026-04-21 23:40 | 6.01969 | -75.42234 | 9838 ft | 258 kts | 359° |
| 2026-04-21 23:40 | 6.03729 | -75.42236 | 9490 ft | 248 kts | 359° |
| 2026-04-21 23:40 | 6.05425 | -75.42241 | 9161 ft | 239 kts | 359° |
| 2026-04-21 23:41 | 6.07030 | -75.42245 | 8868 ft | 222 kts | 359° |
| 2026-04-21 23:41 | 6.08511 | -75.42251 | 8543 ft | 204 kts | 359° |
| 2026-04-21 23:41 | 6.09865 | -75.42258 | 8279 ft | 185 kts | 359° |
| 2026-04-21 23:41 | 6.11085 | -75.42268 | 8034 ft | 168 kts | 359° |
| 2026-04-21 23:42 | 6.12225 | -75.42301 | 7661 ft | 161 kts | 357° |
| 2026-04-21 23:42 | 6.13332 | -75.42317 | 7273 ft | 156 kts | 1° |
| 2026-04-21 23:42 | 6.14411 | -75.42309 | 7100 ft | 155 kts | 1° |
| 2026-04-21 23:42 | 6.15483 | -75.42309 | 6982 ft | 151 kts | 1° |
| 2026-04-21 23:43 | 6.16321 | -75.42311 | 6987 ft | 86 kts | 0° |
| 2026-04-21 23:43 | 6.16831 | -75.42313 | 7013 ft | 41 kts | 358° |
| 2026-04-21 23:43 | 6.16939 | -75.42333 | 7018 ft | 15 kts | 347° |
| 2026-04-21 23:43 | 6.17058 | -75.42379 | 7019 ft | 23 kts | 331° |
| 2026-04-21 23:44 | 6.17178 | -75.42450 | 7019 ft | 20 kts | 329° |
| 2026-04-21 23:44 | 6.17210 | -75.42474 | 7018 ft | 1 kts | 292° |
| 2026-04-21 23:44 | 6.17198 | -75.42491 | 7021 ft | 6 kts | 233° |
| 2026-04-21 23:44 | 6.17191 | -75.42554 | 7017 ft | 13 kts | 269° |
| 2026-04-21 23:45 | 6.17159 | -75.42615 | 7017 ft | 9 kts | 193° |
| 2026-04-21 23:45 | 6.17067 | -75.42630 | 7017 ft | 5 kts | 206° |
| 2026-04-21 23:45 | 6.17040 | -75.42648 | 7016 ft | 5 kts | 217° |
| 2026-04-21 23:46 | 6.17006 | -75.42676 | 7019 ft | 8 kts | 219° |
| 2026-04-21 23:46 | 6.16960 | -75.42721 | 7018 ft | 5 kts | 236° |
| 2026-04-21 23:46 | 6.16961 | -75.42747 | 7016 ft | 3 kts | 292° |
| 2026-04-21 23:46 | 6.16981 | -75.42762 | 7017 ft | 4 kts | 328° |
| 2026-04-21 23:47 | 6.16987 | -75.42766 | 7016 ft | 0 kts | 328° |
| 2026-04-21 23:47 | 6.16988 | -75.42766 | 7016 ft | 0 kts | 328° |